Latest Weather Observations for Orange Airport

IDN60801

Issued at 1:03 pm EST Tuesday 5 May 2015 (issued every 30 minutes, with the page automatically refreshed every 10 minutes)

About weather observations | Map of weather stations | Latest weather observations for NSW | Other Formats
Station Details ID: 063303 Name: ORANGE AIRPORT AWS Lat: -33.38 Lon: 149.13 Height: 944.65 m
Data from the previous 72 hours. | See also: Recent months at Orange Airport
Date/Time
EST
Temp
°C
App
Temp
°C
Dew
Point
Rel
Hum
%
Delta-T
°C
Wind Press
QNH
hPa
Press
MSL
hPa
Rain
since 9 am
mm
Dir
 
Spd
km/h
Gust
km/h
Spd
kts
Gust
kts
05/01:00pm 18.5 12.0 8.2 51 5.6 NW 32 43 17 23 1010.4 1010.0 0.0
05/12:30pm 18.1 12.1 8.7 54 5.1 NW 30 43 16 23 1010.9 1010.6 0.0
05/12:00pm 17.2 11.1 8.1 55 4.9 NNW 30 43 16 23 1011.6 1011.2 0.0
05/11:30am 16.7 10.6 8.4 58 4.4 NW 30 41 16 22 1012.4 1012.0 0.0
05/11:00am 16.6 10.8 7.8 56 4.7 NW 28 39 15 21 1012.7 1012.3 0.0
05/10:30am 15.9 9.7 7.9 59 4.2 NW 30 41 16 22 1013.1 1012.8 0.0
05/10:00am 15.6 10.3 8.6 63 3.7 NNW 26 41 14 22 1013.1 1012.8 0.0
05/09:30am 14.5 10.5 10.3 76 2.3 NNW 22 32 12 17 1013.2 1012.9 0.0
05/09:00am 12.3 7.4 8.4 77 2.0 NW 24 32 13 17 1013.3 1013.0 0.2
05/08:30am 12.4 7.8 9.6 83 1.5 NW 24 32 13 17 1013.2 1012.9 0.2
05/08:00am 12.5 6.9 10.0 85 1.4 NW 30 43 16 23 1012.9 1012.6 0.2
05/07:30am 11.8 5.6 10.2 90 0.9 NW 33 43 18 23 1012.7 1012.3 0.2
05/07:00am 11.1 6.6 10.0 93 0.6 NNW 24 35 13 19 1012.8 1012.5 0.2
05/06:46am 10.8 7.0 9.7 93 0.6 NNW 20 28 11 15 1012.8 1012.5 0.2
05/06:40am 10.6 7.3 9.5 93 0.6 NNW 17 24 9 13 1012.8 1012.5 0.2
05/06:30am 10.3 7.3 9.2 93 0.6 N 15 20 8 11 1012.9 1012.6 0.2
05/06:07am 10.2 7.2 9.1 93 0.6 NNE 15 17 8 9 1012.9 1012.6 0.2
05/06:00am 10.1 6.7 9.0 93 0.6 N 17 24 9 13 1012.9 1012.6 0.2
05/05:35am 10.1 6.7 9.0 93 0.6 N 17 19 9 10 1012.9 1012.6 0.2
05/05:30am 10.0 6.9 8.9 93 0.6 N 15 19 8 10 1012.9 1012.6 0.2
05/05:07am 9.4 7.7 8.3 93 0.6 N 7 9 4 5 1013.4 1013.1 0.0
05/05:00am 9.1 7.3 8.0 93 0.6 N 7 9 4 5 1013.4 1013.1 0.0
05/04:30am 9.6 7.2 8.5 93 0.6 N 11 13 6 7 1013.4 1013.1 0.0
05/04:00am 10.2 8.9 9.1 93 0.6 NNW 6 7 3 4 1013.9 1013.6 0.0
05/03:43am 10.2 8.7 9.1 93 0.6 NNE 7 11 4 6 1013.9 1013.6 0.0
05/03:30am 7.8 5.9 6.7 93 0.5 N 6 9 3 5 1014.0 1013.7 0.0
05/03:08am 6.2 4.7 5.2 93 0.5 NW 2 7 1 4 1014.3 1014.0 0.0
05/03:00am 5.9 4.8 4.9 93 0.5 CALM 0 0 0 0 1014.3 1014.0 0.0
05/02:34am 7.0 4.9 5.9 93 0.5 NW 6 7 3 4 1014.8 1014.5 0.0
05/02:30am 6.7 4.6 5.7 93 0.5 NNW 6 7 3 4 1014.8 1014.5 0.0
05/02:00am 7.0 4.9 5.9 93 0.5 N 6 7 3 4 1014.8 1014.5 0.0
05/01:40am 7.1 4.9 6.0 93 0.5 N 7 9 4 5 1015.2 1014.9 0.0
05/01:39am 7.0 4.7 5.9 93 0.5 N 7 9 4 5 1015.2 1014.9 0.0
05/01:36am 6.9 4.6 5.8 93 0.5 N 7 9 4 5 1015.2 1014.9 0.0
05/01:34am 6.8 4.7 5.7 93 0.5 N 6 7 3 4 1015.2 1014.9 0.0
05/01:30am 7.4 5.8 6.3 93 0.5 N 4 7 2 4 1015.2 1014.9 0.0
05/01:00am 8.1 7.4 7.0 93 0.5 CALM 0 0 0 0 1015.4 1015.1 0.0
05/12:34am 6.3 5.2 5.3 93 0.5 CALM 0 0 0 0 1015.6 1015.4 0.0
05/12:30am 6.6 5.6 5.6 93 0.5 CALM 0 0 0 0 1015.7 1015.5 0.0
05/12:16am 7.7 6.9 6.6 93 0.5 CALM 0 0 0 0 1015.7 1015.5 0.0
05/12:02am 7.8 7.0 6.7 93 0.5 CALM 0 0 0 0 1015.7 1015.5 0.0
05/12:00am 7.6 6.8 6.5 93 0.5 CALM 0 0 0 0 1015.7 1015.5 0.0
 
Date/Time
EST
Temp
°C
App
Temp
°C
Dew
Point
Rel
Hum
%
Delta-T
°C
Wind Press
QNH
hPa
Press
MSL
hPa
Rain
since 9 am
mm
Dir
 
Spd
km/h
Gust
km/h
Spd
kts
Gust
kts
04/11:50pm 7.8 7.0 6.7 93 0.5 CALM 0 0 0 0 1015.6 1015.4 0.0
04/11:30pm 9.3 8.9 8.2 93 0.6 CALM 0 0 0 0 1016.1 1015.8 0.0
04/11:00pm 8.4 7.8 7.3 93 0.5 CALM 0 0 0 0 1016.3 1016.0 0.0
04/10:30pm 9.2 8.8 8.1 93 0.6 CALM 0 0 0 0 1016.5 1016.3 0.0
04/10:00pm 9.7 9.4 8.6 93 0.6 CALM 0 0 0 0 1016.8 1016.6 0.0
04/09:30pm 9.4 9.0 8.3 93 0.6 CALM 0 0 0 0 1017.0 1016.7 0.0
04/09:00pm 10.4 9.9 9.3 93 0.6 NW 2 6 1 3 1017.0 1016.7 0.0
04/08:30pm 10.5 9.3 9.4 93 0.6 NW 6 7 3 4 1016.7 1016.5 0.0
04/08:00pm 10.7 9.5 9.6 93 0.6 NW 6 7 3 4 1016.8 1016.6 0.0
04/07:30pm 11.5 11.7 10.4 93 0.6 CALM 0 0 0 0 1016.7 1016.5 0.0
04/07:28pm 11.4 11.5 10.3 93 0.6 CALM 0 0 0 0 1016.7 1016.5 0.0
04/07:20pm 11.0 11.0 9.9 93 0.6 CALM 0 0 0 0 1016.6 1016.4 0.0
04/07:00pm 11.7 11.9 10.6 93 0.6 CALM 0 0 0 0 1016.5 1016.3 0.0
04/06:45pm 12.6 13.0 11.3 92 0.7 CALM 0 2 0 1 1016.4 1016.2 0.0
04/06:30pm 13.0 13.2 10.7 86 1.3 CALM 0 0 0 0 1016.4 1016.2 0.0
04/06:00pm 14.8 15.4 11.9 83 1.6 CALM 0 0 0 0 1016.3 1016.0 0.0
04/05:48pm 15.7 16.2 11.7 77 2.3 CALM 0 0 0 0 1016.2 1015.9 0.0
04/05:30pm 16.4 17.0 12.0 75 2.5 CALM 0 6 0 3 1016.2 1015.9 0.0
04/05:00pm 17.4 18.1 12.3 72 2.9 CALM 0 0 0 0 1016.2 1015.9 0.0
04/04:52pm 17.7 18.1 12.4 71 3.1 NNW 2 6 1 3 1016.1 1015.8 0.0
04/04:41pm 18.8 19.5 12.1 65 3.9 CALM 0 4 0 2 1016.0 1015.7 0.0
04/04:40pm 18.9 19.7 12.4 66 3.8 CALM 0 6 0 3 1016.0 1015.7 0.0
04/04:30pm 18.1 18.3 11.7 66 3.7 NW 2 6 1 3 1016.0 1015.7 0.0
04/04:00pm 19.2 18.7 12.5 65 3.9 WNW 7 11 4 6 1016.2 1015.9 0.0
04/03:30pm 18.4 19.3 13.0 71 3.2 CALM 0 0 0 0 1016.2 1015.9 0.0
04/03:00pm 18.7 17.8 12.5 67 3.6 W 9 11 5 6 1016.3 1016.0 0.0
04/02:44pm 19.2 18.7 12.5 65 3.9 SSE 7 11 4 6 1016.4 1016.2 0.0
04/02:30pm 18.4 17.9 12.2 67 3.6 SE 6 11 3 6 1016.4 1016.2 0.0
04/02:01pm 18.4 17.6 13.0 71 3.2 NW 9 13 5 7 1016.4 1016.2 0.0
04/02:00pm 18.2 17.2 12.2 68 3.5 NW 9 13 5 7 1016.4 1016.2 0.0
04/01:34pm 19.0 18.6 12.5 66 3.8 NNW 6 24 3 13 1016.4 1016.2 0.0
04/01:30pm 18.9 19.0 12.6 67 3.7 NW 4 9 2 5 1016.4 1016.2 0.0
04/01:25pm 18.1 18.0 12.1 68 3.5 WNW 4 9 2 5 1016.5 1016.3 0.0
04/01:06pm 18.3 18.2 13.2 72 3.0 SW 6 13 3 7 1016.6 1016.4 0.0
04/01:00pm 17.6 17.2 12.3 71 3.1 SW 6 13 3 7 1016.7 1016.5 0.0
04/12:30pm 18.1 16.6 11.9 67 3.6 ESE 11 19 6 10 1017.3 1017.1 0.0
04/12:00pm 17.4 15.3 12.5 73 2.8 ESE 15 20 8 11 1017.7 1017.5 0.0
04/11:30am 16.5 16.1 13.0 80 2.0 E 7 11 4 6 1018.3 1018.1 0.0
04/11:00am 15.6 14.3 12.4 81 1.8 ENE 11 15 6 8 1018.5 1018.3 0.0
04/10:30am 15.4 14.1 12.5 83 1.7 ENE 11 15 6 8 1018.5 1018.3 0.0
04/10:00am 15.6 14.5 11.8 78 2.2 E 9 11 5 6 1018.5 1018.3 0.0
04/09:30am 15.3 14.5 12.8 85 1.4 E 9 13 5 7 1018.6 1018.4 0.0
04/09:00am 14.9 13.7 12.8 87 1.2 SSE 11 13 6 7 1018.7 1018.5 0.0
04/08:30am 12.9 11.8 11.8 93 0.6 S 9 11 5 6 1018.7 1018.5 0.0
04/08:00am 12.0 12.3 10.9 93 0.6 CALM 0 0 0 0 1018.5 1018.3 0.0
04/07:30am 10.2 10.0 9.1 93 0.6 CALM 0 2 0 1 1018.5 1018.3 0.0
04/07:00am 7.9 5.5 6.8 93 0.5 SSW 9 11 5 6 1018.2 1017.9 0.0
04/06:49am 8.4 5.7 7.3 93 0.5 SSW 11 11 6 6 1017.9 1017.7 0.0
04/06:30am 7.6 5.5 6.5 93 0.5 SW 7 9 4 5 1017.8 1017.6 0.0
04/06:00am 7.7 6.9 6.6 93 0.5 CALM 0 0 0 0 1017.7 1017.5 0.0
04/05:38am 7.3 6.4 6.2 93 0.5 CALM 0 0 0 0 1017.8 1017.6 0.0
04/05:30am 7.1 5.8 6.0 93 0.5 W 2 6 1 3 1017.7 1017.5 0.0
04/05:00am 7.0 6.1 5.9 93 0.5 CALM 0 0 0 0 1017.4 1017.2 0.0
04/04:30am 7.5 5.9 6.4 93 0.5 S 4 7 2 4 1017.3 1017.1 0.0
04/04:12am 6.7 5.7 5.7 93 0.5 CALM 0 6 0 3 1017.1 1016.8 0.0
04/04:00am 7.6 6.4 6.5 93 0.5 S 2 6 1 3 1017.0 1016.7 0.0
04/03:30am 9.1 7.3 8.0 93 0.6 SW 7 7 4 4 1017.0 1016.7 0.0
04/03:00am 8.3 7.7 7.2 93 0.5 CALM 0 0 0 0 1017.0 1016.7 0.0
04/02:30am 9.2 7.4 8.1 93 0.6 SW 7 9 4 5 1017.2 1016.9 0.0
04/02:00am 8.8 7.1 7.7 93 0.6 SW 6 6 3 3 1017.3 1017.1 0.0
04/01:31am 10.1 8.6 9.0 93 0.6 SW 7 7 4 4 1017.4 1017.2 0.0
04/01:30am 10.2 8.7 9.1 93 0.6 SW 7 7 4 4 1017.4 1017.2 0.0
04/01:20am 10.6 9.2 9.5 93 0.6 SSW 7 9 4 5 1017.4 1017.2 0.0
04/01:00am 9.9 7.9 8.8 93 0.6 SW 9 11 5 6 1017.6 1017.4 0.0
04/12:58am 10.0 8.4 8.9 93 0.6 SW 7 11 4 6 1017.6 1017.4 0.0
04/12:30am 10.8 9.4 9.7 93 0.6 S 7 7 4 4 1017.7 1017.5 0.0
04/12:00am 12.0 11.9 10.9 93 0.6 SE 2 7 1 4 1017.9 1017.7 0.0
 
Date/Time
EST
Temp
°C
App
Temp
°C
Dew
Point
Rel
Hum
%
Delta-T
°C
Wind Press
QNH
hPa
Press
MSL
hPa
Rain
since 9 am
mm
Dir
 
Spd
km/h
Gust
km/h
Spd
kts
Gust
kts
03/11:30pm 12.7 12.1 11.6 93 0.6 ESE 6 7 3 4 1018.1 1017.8 0.0
03/11:00pm 13.3 14.0 12.2 93 0.6 CALM 0 0 0 0 1018.4 1018.2 0.0
03/10:30pm 13.7 12.8 12.6 93 0.6 ESE 9 13 5 7 1018.4 1018.2 0.0
03/10:00pm 14.1 13.3 13.0 93 0.6 SE 9 13 5 7 1018.7 1018.5 0.0
03/09:30pm 14.4 12.6 13.3 93 0.6 SSE 15 17 8 9 1018.6 1018.4 0.0
03/09:00pm 14.4 13.4 13.3 93 0.6 SSE 11 15 6 8 1018.7 1018.5 0.0
03/08:30pm 14.7 12.6 13.6 93 0.6 SSE 17 20 9 11 1018.6 1018.4 0.0
03/08:00pm 14.6 13.2 13.5 93 0.6 SSE 13 17 7 9 1018.5 1018.3 0.0
03/07:30pm 14.6 13.6 13.5 93 0.6 SSW 11 13 6 7 1018.2 1017.9 0.0
03/07:00pm 14.8 13.5 13.7 93 0.6 SSW 13 17 7 9 1017.8 1017.6 0.0
03/06:30pm 15.2 13.9 13.6 90 0.9 SSW 13 17 7 9 1017.6 1017.4 0.0
03/06:00pm 15.4 13.7 13.6 89 1.1 SSW 15 20 8 11 1017.4 1017.2 0.0
03/05:30pm 15.7 13.6 13.5 87 1.3 SSW 17 20 9 11 1017.1 1016.8 0.0
03/05:00pm 16.0 13.8 13.3 84 1.6 SSW 17 19 9 10 1016.8 1016.6 0.0
03/04:30pm 16.9 14.2 13.6 81 1.9 SSW 20 28 11 15 1016.6 1016.4 0.0
03/04:00pm 17.5 15.0 14.0 80 2.1 SSW 20 28 11 15 1016.5 1016.3 0.0
03/03:30pm 18.2 15.1 13.5 74 2.8 SSW 22 32 12 17 1016.4 1016.2 0.0
03/03:00pm 18.2 15.1 13.5 74 2.8 SSW 22 30 12 16 1016.4 1016.2 0.0
03/02:30pm 18.1 15.4 13.4 74 2.8 SSW 20 28 11 15 1016.4 1016.2 0.0
03/02:00pm 18.9 16.1 14.4 75 2.7 SSW 22 30 12 16 1016.3 1016.0 0.0
03/01:30pm 18.2 15.8 14.3 78 2.3 SSW 20 30 11 16 1016.4 1016.2 0.0
03/01:00pm 18.4 15.9 13.5 73 2.9 S 19 26 10 14 1016.7 1016.5 0.0
03/12:30pm 17.8 15.8 13.9 78 2.3 S 17 22 9 12 1017.1 1016.8 0.0
03/12:12pm 17.5 15.1 13.8 79 2.2 SSE 19 24 10 13 1017.3 1017.1 0.0
03/12:00pm 17.3 14.9 13.8 80 2.1 S 19 24 10 13 1017.4 1017.2 0.0
03/11:30am 16.3 14.0 14.0 86 1.4 SSE 19 24 10 13 1017.8 1017.6 0.0
03/11:00am 15.2 13.3 14.1 93 0.6 S 17 20 9 11 1018.4 1018.2 0.0
03/10:30am 14.4 13.0 13.3 93 0.6 SSE 13 17 7 9 1018.6 1018.4 0.0
03/10:00am 14.4 12.6 13.3 93 0.6 SE 15 20 8 11 1018.3 1018.1 0.0
03/09:30am 13.4 11.3 12.3 93 0.6 SSE 15 20 8 11 1018.6 1018.4 0.0
03/09:08am 13.1 10.9 12.0 93 0.6 SSE 15 19 8 10 1018.7 1018.5 0.0
03/09:00am 13.1 10.9 12.0 93 0.6 SSE 15 17 8 9 1018.6 1018.4 1.0
03/08:30am 13.0 10.7 11.9 93 0.6 S 15 19 8 10 1018.5 1018.3 1.0
03/08:00am 12.5 10.1 11.4 93 0.6 SSE 15 19 8 10 1018.3 1018.1 1.0
03/07:30am 12.2 9.7 11.1 93 0.6 S 15 19 8 10 1017.6 1017.4 1.0
03/07:00am 12.0 9.5 10.9 93 0.6 SSE 15 20 8 11 1017.2 1016.9 1.0
03/06:30am 11.6 9.3 10.5 93 0.6 S 13 17 7 9 1016.8 1016.6 0.8
03/06:00am 10.6 8.0 9.5 93 0.6 SSW 13 15 7 8 1016.6 1016.4 0.8
03/05:30am 10.1 7.4 9.0 93 0.6 SSW 13 15 7 8 1016.4 1016.2 0.8
03/05:00am 10.3 7.7 9.2 93 0.6 SSW 13 15 7 8 1016.0 1015.7 0.8
03/04:38am 10.6 8.0 9.5 93 0.6 SSW 13 15 7 8 1016.1 1015.8 0.8
03/04:30am 9.9 7.5 8.8 93 0.6 S 11 13 6 7 1016.1 1015.8 0.8
03/04:00am 9.6 7.2 8.5 93 0.6 S 11 13 6 7 1015.9 1015.6 0.8
03/03:30am 9.7 7.7 8.6 93 0.6 S 9 11 5 6 1015.9 1015.6 0.8
03/03:26am 9.8 7.8 8.7 93 0.6 S 9 11 5 6 1015.9 1015.6 0.8
03/03:00am 10.2 7.5 9.1 93 0.6 S 13 13 7 7 1016.1 1015.8 0.8
03/02:30am 10.8 8.7 9.7 93 0.6 S 11 13 6 7 1016.5 1016.3 0.8
03/02:00am 10.9 9.2 9.8 93 0.6 SSW 9 13 5 7 1016.7 1016.5 0.8
03/01:30am 11.1 9.1 10.0 93 0.6 SSW 11 13 6 7 1017.1 1016.8 0.6
03/01:00am 11.4 9.1 10.3 93 0.6 S 13 13 7 7 1017.3 1017.1 0.6
03/12:30am 12.2 10.5 11.1 93 0.6 S 11 13 6 7 1017.7 1017.5 0.6
03/12:00am 12.4 10.3 11.3 93 0.6 S 13 13 7 7 1017.9 1017.7 0.6
 
Date/Time
EST
Temp
°C
App
Temp
°C
Dew
Point
Rel
Hum
%
Delta-T
°C
Wind Press
QNH
hPa
Press
MSL
hPa
Rain
since 9 am
mm
Dir
 
Spd
km/h
Gust
km/h
Spd
kts
Gust
kts
02/11:30pm 12.1 10.7 11.0 93 0.6 SSE 9 13 5 7 1018.1 1017.8 0.6
02/11:00pm 11.5 9.2 10.4 93 0.6 SSE 13 15 7 8 1018.3 1018.1 0.6
02/10:30pm 11.4 10.2 10.3 93 0.6 S 7 9 4 5 1018.3 1018.1 0.6
02/10:00pm 11.4 9.1 10.3 93 0.6 SE 13 15 7 8 1018.5 1018.3 0.6
02/09:30pm 11.7 9.4 10.6 93 0.6 SE 13 15 7 8 1018.5 1018.3 0.6
02/09:00pm 11.8 9.6 10.7 93 0.6 SSE 13 15 7 8 1018.3 1018.1 0.6
02/08:30pm 11.8 10.3 10.7 93 0.6 S 9 11 5 6 1018.3 1018.1 0.6
02/08:00pm 12.7 11.1 11.6 93 0.6 SE 11 13 6 7 1018.5 1018.3 0.6
02/07:30pm 13.7 11.7 12.6 93 0.6 SSE 15 17 8 9 1018.4 1018.2 0.6
02/07:00pm 13.8 12.2 12.7 93 0.6 SE 13 15 7 8 1018.4 1018.2 0.6
02/06:30pm 13.7 12.0 12.6 93 0.6 SE 13 15 7 8 1018.3 1018.1 0.6
02/06:00pm 14.0 12.8 12.9 93 0.6 SE 11 11 6 6 1018.1 1017.8 0.6
02/05:30pm 14.5 13.1 13.4 93 0.6 ESE 13 19 7 10 1018.1 1017.8 0.6
02/05:00pm 15.0 13.8 13.9 93 0.6 ESE 13 15 7 8 1018.2 1017.9 0.6
02/04:30pm 15.2 13.5 13.7 91 0.9 ESE 15 20 8 11 1018.2 1017.9 0.6
02/04:00pm 15.6 13.2 13.8 89 1.1 ESE 19 26 10 14 1018.3 1018.1 0.6
02/03:30pm 15.7 13.9 14.4 92 0.8 ESE 17 22 9 12 1018.5 1018.3 0.6
02/03:00pm 15.4 13.0 14.3 93 0.7 ESE 20 26 11 14 1018.5 1018.3 0.6
02/02:30pm 15.1 12.1 13.8 92 0.8 SE 22 28 12 15 1018.5 1018.3 0.6
02/02:00pm 15.8 14.1 13.6 87 1.3 ESE 15 22 8 12 1018.5 1018.3 0.2
02/01:30pm 15.6 14.3 13.8 89 1.1 ESE 13 15 7 8 1018.7 1018.5 0.0

Other Formats:

Comma delimited format used in spreadsheet applications
http://www.bom.gov.au/fwo/IDN60801/IDN60801.95726.axf

JavaScript Object Notation format (JSON) in row-major order
http://www.bom.gov.au/fwo/IDN60801/IDN60801.95726.json